Time;durP1;ratioP1;P1;durP2;ratioP2;P2;SDS_P1;SDS_P2;PMS_P1;PMS_P2;Temp;Humidity;BMP_temperature;BMP_pressure;BME280_temperature;BME280_humidity;BME280_pressure;Samples;Min_cycle;Max_cycle;Signal;HPM_P1;HPM_P2
2022/05/05 00:01:33;;;;;;;10.65;5.00;;;14.30;99.90;;;;;;5026689;28;20187;-75
2022/05/05 00:03:59;;;;;;;5.60;5.00;;;14.40;99.90;;;;;;5031996;28;20160;-91
2022/05/05 00:06:26;;;;;;;7.55;5.57;;;14.30;99.90;;;;;;5040893;28;20184;-87
2022/05/05 00:08:52;;;;;;;6.00;5.40;;;14.30;99.90;;;;;;5040909;28;20168;-77
2022/05/05 00:16:45;;;;;;;9.30;4.65;;;14.70;99.90;;;;;;5039564;28;20230;-87
2022/05/05 00:19:11;;;;;;;7.50;4.65;;;14.60;99.90;;;;;;5039574;28;20444;-85
2022/05/05 00:21:39;;;;;;;5.15;4.65;;;14.60;99.90;;;;;;5039843;28;20181;-85
2022/05/05 00:24:06;;;;;;;9.57;5.30;;;14.60;99.90;;;;;;5040041;28;20148;-84
2022/05/05 00:26:32;;;;;;;17.88;7.60;;;14.70;99.90;;;;;;5038714;28;20188;-81
2022/05/05 00:28:58;;;;;;;9.77;6.45;;;14.70;99.90;;;;;;5038218;28;20204;-74
2022/05/05 00:31:23;;;;;;;11.13;6.53;;;14.80;99.90;;;;;;5036820;28;20258;-73
2022/05/05 00:33:49;;;;;;;8.07;6.25;;;14.70;99.90;;;;;;5036353;28;20212;-77
2022/05/05 00:36:15;;;;;;;15.40;5.43;;;14.70;99.90;;;;;;5016865;28;20246;-84
2022/05/05 00:38:41;;;;;;;14.85;6.18;;;14.70;99.90;;;;;;5014986;28;20590;-76
2022/05/05 00:41:08;;;;;;;8.13;5.03;;;14.90;99.90;;;;;;5029412;28;20207;-79
2022/05/05 00:43:34;;;;;;;14.48;5.38;;;14.80;99.90;;;;;;5014581;28;20164;-78
2022/05/05 00:46:00;;;;;;;5.93;5.03;;;14.70;99.90;;;;;;5014380;28;20733;-79
2022/05/05 00:48:27;;;;;;;8.48;5.70;;;14.70;99.90;;;;;;5014561;28;20169;-78
2022/05/05 00:50:53;;;;;;;18.17;5.13;;;14.70;99.90;;;;;;5014656;28;20707;-75
2022/05/05 00:53:19;;;;;;;10.63;5.68;;;14.90;99.90;;;;;;5014758;28;20179;-78
2022/05/05 00:55:45;;;;;;;7.90;5.85;;;14.90;99.90;;;;;;5013774;28;20192;-76
2022/05/05 00:58:12;;;;;;;7.50;4.75;;;14.80;99.90;;;;;;5014976;28;20605;-76
2022/05/05 01:00:38;;;;;;;8.27;5.15;;;14.80;99.90;;;;;;5014378;28;20241;-76
2022/05/05 01:03:06;;;;;;;16.08;6.40;;;14.80;99.90;;;;;;5015309;28;20249;-76
2022/05/05 01:05:32;;;;;;;8.20;5.43;;;14.80;99.90;;;;;;5014287;28;20233;-75
2022/05/05 01:07:58;;;;;;;8.65;5.68;;;14.70;99.90;;;;;;5013791;28;20219;-79
2022/05/05 01:10:25;;;;;;;22.10;6.53;;;14.70;99.90;;;;;;5013981;28;20200;-75
2022/05/05 01:12:51;;;;;;;7.13;5.53;;;14.80;99.90;;;;;;5014219;28;20168;-77
2022/05/05 01:15:17;;;;;;;11.35;6.18;;;14.70;99.90;;;;;;5013960;28;20185;-75
2022/05/05 01:17:43;;;;;;;10.70;6.07;;;14.70;99.90;;;;;;5014010;28;20173;-82
2022/05/05 01:20:17;;;;;;;7.25;5.68;;;14.60;99.90;;;;;;5014188;28;20653;-82
2022/05/05 01:22:43;;;;;;;11.82;5.57;;;14.60;99.90;;;;;;5029515;28;20165;-82
2022/05/05 01:28:11;;;;;;;9.52;5.50;;;14.40;99.90;;;;;;5014137;28;20192;-80
2022/05/05 01:30:42;;;;;;;9.20;5.53;;;14.50;99.90;;;;;;5013409;28;20327;-78
2022/05/05 01:33:23;;;;;;;15.80;6.45;;;14.30;99.90;;;;;;5013926;28;20165;-84
2022/05/05 01:35:53;;;;;;;10.55;6.30;;;14.20;99.90;;;;;;5014056;28;20228;-82
2022/05/05 01:38:20;;;;;;;7.40;5.82;;;14.10;99.90;;;;;;5014120;28;20165;-79
2022/05/05 01:40:46;;;;;;;13.52;6.63;;;14.00;99.90;;;;;;5014253;28;20175;-84
2022/05/05 01:43:17;;;;;;;10.85;7.05;;;14.20;99.90;;;;;;5013605;28;20160;-76
2022/05/05 01:45:43;;;;;;;12.50;6.60;;;14.30;99.90;;;;;;5013461;28;20553;-76
2022/05/05 01:48:09;;;;;;;10.73;7.65;;;14.30;99.90;;;;;;5013596;28;20165;-75
2022/05/05 01:50:36;;;;;;;9.02;6.75;;;14.30;99.90;;;;;;5013252;28;20223;-75
2022/05/05 01:53:03;;;;;;;11.25;6.93;;;14.30;99.90;;;;;;5013417;28;20208;-80
2022/05/05 01:55:33;;;;;;;10.50;6.72;;;14.30;99.90;;;;;;5013831;28;20601;-77
2022/05/05 01:58:00;;;;;;;15.48;7.78;;;14.20;99.90;;;;;;5013427;28;20172;-75
2022/05/05 02:00:26;;;;;;;16.50;7.15;;;14.40;99.90;;;;;;5013342;28;20263;-83
2022/05/05 02:02:52;;;;;;;15.02;10.07;;;14.60;99.90;;;;;;5013763;28;20651;-84
2022/05/05 02:05:18;;;;;;;24.27;11.65;;;14.70;99.90;;;;;;5013530;28;20275;-75
2022/05/05 02:07:44;;;;;;;18.17;11.85;;;14.70;99.90;;;;;;5011824;28;20696;-76
2022/05/05 02:10:15;;;;;;;20.67;12.25;;;14.80;99.90;;;;;;5013074;28;20322;-78
2022/05/05 02:12:41;;;;;;;23.33;13.77;;;14.90;99.90;;;;;;5013014;28;20164;-80
2022/05/05 02:15:08;;;;;;;23.10;14.35;;;14.90;99.90;;;;;;5027546;28;20285;-78
2022/05/05 02:17:38;;;;;;;26.90;14.07;;;14.90;99.90;;;;;;5012778;28;20165;-76
2022/05/05 02:20:06;;;;;;;28.60;15.55;;;14.70;99.90;;;;;;5013186;28;20259;-81
2022/05/05 02:22:32;;;;;;;23.98;14.52;;;14.60;99.90;;;;;;5013498;28;20165;-82
2022/05/05 02:24:58;;;;;;;27.50;14.35;;;14.60;99.90;;;;;;5012626;28;20200;-80
2022/05/05 02:27:24;;;;;;;26.75;15.35;;;14.80;99.90;;;;;;5012645;28;20222;-82
2022/05/05 02:29:50;;;;;;;27.42;14.77;;;15.00;99.90;;;;;;5027870;28;20537;-83
2022/05/05 02:32:16;;;;;;;23.48;15.70;;;14.70;99.90;;;;;;5012725;28;20708;-83
2022/05/05 02:34:43;;;;;;;24.92;15.30;;;14.80;99.90;;;;;;5013639;28;20169;-90
2022/05/05 02:39:53;;;;;;;25.27;14.80;;;15.20;99.90;;;;;;5014662;28;20200;-91
2022/05/05 02:42:20;;;;;;;31.65;17.10;;;15.20;99.90;;;;;;5014486;28;20169;-92
2022/05/05 02:44:46;;;;;;;25.85;14.98;;;15.10;99.90;;;;;;5014979;28;20168;-90
2022/05/05 02:47:12;;;;;;;35.75;16.52;;;15.00;99.90;;;;;;5014194;28;20173;-92
2022/05/05 02:49:38;;;;;;;27.92;17.70;;;14.70;99.90;;;;;;5014352;28;20168;-92
2022/05/05 02:52:05;;;;;;;29.25;18.80;;;14.40;99.90;;;;;;5013890;28;20234;-90
2022/05/05 02:54:51;;;;;;;30.48;18.67;;;14.30;99.90;;;;;;5029567;28;20176;-92
2022/05/05 02:57:18;;;;;;;33.75;17.58;;;14.10;99.90;;;;;;5013836;28;20175;-90
2022/05/05 02:59:44;;;;;;;33.35;18.35;;;14.10;99.90;;;;;;5014317;28;20165;-91
2022/05/05 03:02:10;;;;;;;28.90;18.25;;;14.30;99.90;;;;;;5014006;28;20180;-90
2022/05/05 03:04:35;;;;;;;29.63;18.20;;;14.30;99.90;;;;;;5014063;28;20251;-88
2022/05/05 03:07:02;;;;;;;35.60;19.73;;;14.50;99.90;;;;;;5013919;28;20161;-91
2022/05/05 03:09:27;;;;;;;28.80;18.20;;;14.40;99.90;;;;;;5014257;28;20171;-92
2022/05/05 03:11:53;;;;;;;32.53;19.73;;;14.60;99.90;;;;;;5014406;28;20291;-91
2022/05/05 03:14:19;;;;;;;31.90;18.05;;;14.70;99.90;;;;;;5030257;28;20165;-91
2022/05/05 03:16:44;;;;;;;32.13;18.98;;;14.80;99.90;;;;;;5013794;28;20250;-92
2022/05/05 03:19:10;;;;;;;40.47;20.95;;;14.60;99.90;;;;;;5016015;28;20523;-87
2022/05/05 03:21:37;;;;;;;35.28;18.83;;;14.40;99.90;;;;;;5017104;28;20260;-82
2022/05/05 03:24:03;;;;;;;39.33;19.45;;;14.30;99.90;;;;;;5016474;28;20165;-84
2022/05/05 03:26:29;;;;;;;31.08;18.23;;;14.10;99.90;;;;;;5016671;28;20192;-82
2022/05/05 03:28:55;;;;;;;36.22;19.52;;;14.20;99.90;;;;;;5016442;28;20222;-82
2022/05/05 03:31:20;;;;;;;40.42;18.55;;;14.40;99.90;;;;;;5016744;28;20204;-82
2022/05/05 03:33:46;;;;;;;32.03;18.63;;;14.30;99.90;;;;;;5016907;28;20218;-85
2022/05/05 03:36:11;;;;;;;29.55;17.63;;;14.30;99.90;;;;;;5016510;28;20271;-81
2022/05/05 03:38:37;;;;;;;33.85;19.05;;;14.30;99.90;;;;;;5015161;28;20187;-84
2022/05/05 03:41:05;;;;;;;38.45;20.15;;;14.30;99.90;;;;;;5016247;28;20711;-84
2022/05/05 03:43:31;;;;;;;33.05;20.00;;;14.20;99.90;;;;;;5016265;28;20171;-89
2022/05/05 03:45:57;;;;;;;35.75;19.70;;;14.30;99.90;;;;;;5015984;28;20188;-80
2022/05/05 03:48:24;;;;;;;37.67;21.70;;;14.20;99.90;;;;;;5016567;28;20243;-81
2022/05/05 03:50:49;;;;;;;28.30;19.40;;;14.30;99.90;;;;;;5015790;28;20192;-80
2022/05/05 03:53:15;;;;;;;38.10;19.73;;;14.20;99.90;;;;;;5015717;28;20172;-82
2022/05/05 03:55:41;;;;;;;44.42;21.20;;;14.20;99.90;;;;;;5015713;28;20192;-75
2022/05/05 03:58:06;;;;;;;36.03;20.10;;;14.20;99.90;;;;;;5015645;28;20704;-78
2022/05/05 04:00:32;;;;;;;35.08;20.58;;;14.40;99.90;;;;;;5015304;28;20181;-85
2022/05/05 04:05:42;;;;;;;35.70;20.27;;;14.20;99.90;;;;;;5015288;28;20258;-79
2022/05/05 04:08:07;;;;;;;39.53;20.85;;;14.20;99.90;;;;;;5015352;28;20176;-78
2022/05/05 04:10:33;;;;;;;37.83;20.40;;;14.10;99.90;;;;;;5030728;28;20244;-78
2022/05/05 04:12:59;;;;;;;33.40;19.42;;;14.00;99.90;;;;;;5015886;28;20252;-78
2022/05/05 04:15:24;;;;;;;38.42;19.88;;;13.80;99.90;;;;;;5014800;28;20246;-75
2022/05/05 04:17:51;;;;;;;27.73;18.67;;;14.10;99.90;;;;;;5015393;28;20161;-81
2022/05/05 04:20:17;;;;;;;38.30;20.75;;;14.10;99.90;;;;;;5014840;28;20172;-79
2022/05/05 04:22:43;;;;;;;31.70;19.17;;;14.10;99.90;;;;;;5015583;28;20238;-75
2022/05/05 04:25:09;;;;;;;40.50;20.80;;;14.00;99.90;;;;;;5015067;28;20641;-79
2022/05/05 04:27:38;;;;;;;34.95;20.33;;;14.00;99.90;;;;;;5015209;28;20176;-81
2022/05/05 04:30:04;;;;;;;32.83;19.38;;;14.10;99.90;;;;;;5014613;28;20169;-87
2022/05/05 04:32:30;;;;;;;33.92;19.25;;;14.30;99.90;;;;;;5015385;28;20256;-85
2022/05/05 04:34:56;;;;;;;32.75;19.67;;;14.10;99.90;;;;;;5015720;28;20274;-79
2022/05/05 04:37:23;;;;;;;35.92;21.23;;;14.00;99.90;;;;;;5015984;28;20192;-82
2022/05/05 04:39:49;;;;;;;32.92;20.00;;;14.00;99.90;;;;;;5015275;28;20215;-82
2022/05/05 04:42:15;;;;;;;34.33;19.80;;;14.00;99.90;;;;;;5015351;28;20164;-83
2022/05/05 04:44:41;;;;;;;32.13;18.85;;;14.10;99.90;;;;;;5015343;28;20168;-84
2022/05/05 04:47:07;;;;;;;38.13;20.83;;;14.00;99.90;;;;;;5015719;28;20175;-81
2022/05/05 04:49:33;;;;;;;35.97;19.77;;;13.90;99.90;;;;;;5015498;28;20615;-82
2022/05/05 04:51:59;;;;;;;34.50;20.92;;;13.90;99.90;;;;;;5015111;28;20208;-79
2022/05/05 04:54:24;;;;;;;35.08;19.60;;;14.20;99.90;;;;;;5014354;28;20168;-82
2022/05/05 04:56:50;;;;;;;40.35;20.50;;;14.20;99.90;;;;;;5015950;28;20192;-77
2022/05/05 04:59:16;;;;;;;35.22;21.25;;;14.30;99.90;;;;;;5022043;28;20169;-76
2022/05/05 05:01:41;;;;;;;37.22;19.38;;;14.30;99.90;;;;;;5023451;28;20633;-77
2022/05/05 05:04:07;;;;;;;32.60;19.25;;;14.40;99.90;;;;;;5023410;28;20182;-86
2022/05/05 05:06:34;;;;;;;34.78;20.85;;;14.40;99.90;;;;;;5034242;28;20188;-88
2022/05/05 05:08:59;;;;;;;38.53;19.20;;;14.50;99.90;;;;;;5027756;28;20177;-89
2022/05/05 05:11:25;;;;;;;30.67;19.45;;;14.70;99.90;;;;;;5029773;28;20268;-91
2022/05/05 05:13:51;;;;;;;30.83;19.38;;;14.80;99.90;;;;;;5032684;28;20164;-91
2022/05/05 05:16:17;;;;;;;27.95;18.73;;;14.80;99.90;;;;;;5033215;28;20256;-76
2022/05/05 05:18:43;;;;;;;33.08;19.48;;;14.50;99.90;;;;;;5031503;28;20156;-90
2022/05/05 05:21:08;;;;;;;39.75;21.35;;;14.70;99.90;;;;;;5021131;28;20270;-91
2022/05/05 05:23:34;;;;;;;37.50;20.98;;;14.70;99.90;;;;;;5015955;28;20240;-91
2022/05/05 05:26:00;;;;;;;44.92;20.60;;;14.80;99.90;;;;;;5015589;28;20195;-92
2022/05/05 05:28:26;;;;;;;34.40;20.35;;;14.80;99.90;;;;;;5017492;28;20180;-88
2022/05/05 05:30:51;;;;;;;35.97;22.05;;;14.90;99.90;;;;;;5015375;28;20261;-77
2022/05/05 05:33:17;;;;;;;38.63;21.40;;;14.80;99.90;;;;;;5014562;28;20174;-75
2022/05/05 05:35:46;;;;;;;39.13;20.98;;;14.80;99.90;;;;;;5017524;28;20184;-87
2022/05/05 05:38:13;;;;;;;39.42;22.80;;;14.80;99.90;;;;;;5017116;28;20204;-88
2022/05/05 05:40:39;;;;;;;37.28;21.45;;;14.90;99.90;;;;;;5016099;28;20618;-90
2022/05/05 05:43:04;;;;;;;36.30;20.52;;;15.00;99.90;;;;;;5020606;28;20195;-89
2022/05/05 05:45:30;;;;;;;37.85;21.30;;;15.00;99.90;;;;;;5015130;28;20192;-91
2022/05/05 05:47:56;;;;;;;49.20;22.67;;;14.80;99.90;;;;;;5015738;28;20176;-88
2022/05/05 05:50:22;;;;;;;36.15;22.00;;;14.80;99.90;;;;;;5015544;28;20562;-90
2022/05/05 05:52:48;;;;;;;34.97;21.02;;;14.80;99.90;;;;;;5015877;28;20169;-90
2022/05/05 05:55:16;;;;;;;33.03;21.17;;;14.90;99.90;;;;;;5015505;28;20223;-90
2022/05/05 05:57:41;;;;;;;39.35;21.30;;;14.90;99.90;;;;;;5015427;28;20169;-91
2022/05/05 06:00:08;;;;;;;38.05;22.52;;;15.20;99.90;;;;;;5015153;28;20271;-93
2022/05/05 06:05:18;;;;;;;36.92;20.05;;;15.30;99.90;;;;;;5015299;28;20274;-89
2022/05/05 06:07:45;;;;;;;36.55;20.85;;;15.50;99.90;;;;;;5014881;28;20169;-88
2022/05/05 06:10:10;;;;;;;32.05;19.23;;;15.50;99.90;;;;;;5014464;28;20161;-88
2022/05/05 06:12:36;;;;;;;34.40;20.15;;;15.50;99.90;;;;;;5014022;28;20176;-76
2022/05/05 06:15:03;;;;;;;30.48;19.70;;;15.50;99.90;;;;;;5013140;28;20188;-83
2022/05/05 06:17:28;;;;;;;33.42;20.90;;;15.60;99.90;;;;;;5013018;28;20226;-78
2022/05/05 06:19:54;;;;;;;37.78;20.10;;;15.70;99.90;;;;;;5012934;28;20168;-81
2022/05/05 06:22:20;;;;;;;31.38;20.90;;;15.90;99.90;;;;;;5012775;28;20180;-78
2022/05/05 06:24:45;;;;;;;32.50;20.25;;;16.10;99.90;;;;;;5013318;28;20904;-78
2022/05/05 06:27:11;;;;;;;29.85;19.33;;;16.30;99.90;;;;;;5013331;28;20227;-79
2022/05/05 06:29:37;;;;;;;34.10;19.00;;;16.40;99.90;;;;;;5013518;28;20165;-76
2022/05/05 06:32:03;;;;;;;32.60;20.13;;;16.20;99.90;;;;;;5010833;28;20267;-79
2022/05/05 06:34:28;;;;;;;30.35;19.00;;;16.30;99.90;;;;;;5012874;28;20659;-77
2022/05/05 06:36:54;;;;;;;33.88;18.95;;;16.40;99.90;;;;;;5012048;28;20189;-77
2022/05/05 06:39:20;;;;;;;36.25;21.60;;;16.30;99.90;;;;;;5011940;28;20176;-77
2022/05/05 06:41:45;;;;;;;35.80;21.70;;;16.40;99.90;;;;;;5026934;28;20263;-76
2022/05/05 06:44:11;;;;;;;37.67;21.05;;;16.60;99.90;;;;;;5012044;28;20218;-77
2022/05/05 06:46:37;;;;;;;35.22;20.60;;;16.60;99.90;;;;;;5030247;28;20254;-76
2022/05/05 06:49:02;;;;;;;30.65;20.20;;;16.60;99.90;;;;;;5032231;28;20199;-77
2022/05/05 06:51:28;;;;;;;33.42;20.45;;;16.50;99.90;;;;;;5031761;28;20235;-76
2022/05/05 06:53:54;;;;;;;33.90;21.40;;;16.30;99.90;;;;;;5033769;28;20222;-77
2022/05/05 06:56:20;;;;;;;31.20;19.80;;;16.10;99.90;;;;;;5036495;28;20194;-77
2022/05/05 06:58:45;;;;;;;33.03;20.38;;;16.10;99.90;;;;;;5037063;28;20159;-84
2022/05/05 07:06:40;;;;;;;35.53;21.80;;;15.70;99.90;;;;;;5036829;28;20196;-83
2022/05/05 07:11:50;;;;;;;34.58;22.10;;;15.80;99.90;;;;;;5036466;28;20341;-77
2022/05/05 07:14:16;;;;;;;43.75;23.00;;;15.90;99.90;;;;;;5035961;28;20633;-77
2022/05/05 07:16:42;;;;;;;41.40;22.63;;;15.90;99.90;;;;;;5036314;28;20717;-76
2022/05/05 07:19:10;;;;;;;41.83;23.27;;;15.90;99.90;;;;;;5036376;28;20180;-77
2022/05/05 07:21:37;;;;;;;42.13;21.73;;;16.00;99.90;;;;;;5037201;28;20759;-84
2022/05/05 07:24:04;;;;;;;38.08;22.25;;;16.10;99.90;;;;;;5035913;28;20156;-76
2022/05/05 07:26:29;;;;;;;43.28;23.42;;;16.10;99.90;;;;;;5034154;28;20203;-80
2022/05/05 07:28:55;;;;;;;33.42;21.35;;;16.20;99.90;;;;;;5041552;28;20172;-78
2022/05/05 07:31:20;;;;;;;42.67;23.17;;;16.30;99.90;;;;;;5039732;28;20286;-78
2022/05/05 07:33:46;;;;;;;38.60;22.02;;;16.50;99.90;;;;;;5041154;28;20199;-76
2022/05/05 07:36:12;;;;;;;42.78;21.77;;;16.60;99.90;;;;;;5038828;28;20306;-75
2022/05/05 07:38:38;;;;;;;46.22;22.17;;;16.60;99.90;;;;;;5038679;28;20190;-77
2022/05/05 07:41:03;;;;;;;36.85;22.05;;;16.80;99.90;;;;;;5040177;28;20187;-76
2022/05/05 07:43:29;;;;;;;42.35;21.63;;;17.10;99.90;;;;;;5039825;28;20574;-76
2022/05/05 07:45:55;;;;;;;36.60;22.42;;;17.20;99.90;;;;;;5041434;28;20188;-76
2022/05/05 07:48:20;;;;;;;35.75;21.25;;;17.40;99.90;;;;;;5040958;28;20255;-77
2022/05/05 07:50:50;;;;;;;31.63;20.55;;;17.60;99.90;;;;;;5040184;28;20210;-77
2022/05/05 07:53:16;;;;;;;37.95;22.70;;;17.60;99.90;;;;;;5040672;28;20172;-76
2022/05/05 07:55:43;;;;;;;36.88;22.88;;;17.80;99.90;;;;;;5055181;28;20184;-81
2022/05/05 07:58:08;;;;;;;40.00;21.52;;;18.10;99.90;;;;;;5037717;28;20157;-83
2022/05/05 08:00:35;;;;;;;37.63;21.15;;;18.10;99.90;;;;;;5035790;28;20178;-77
2022/05/05 08:03:01;;;;;;;40.63;21.00;;;17.90;99.90;;;;;;5050513;28;20203;-78
2022/05/05 08:05:27;;;;;;;38.40;18.60;;;18.30;99.90;;;;;;5050431;28;20188;-79
2022/05/05 08:07:53;;;;;;;32.72;19.77;;;18.30;99.90;;;;;;5025114;28;20169;-85
2022/05/05 08:10:22;;;;;;;35.78;19.48;;;18.30;99.90;;;;;;5033205;28;20207;-80
2022/05/05 08:12:50;;;;;;;32.45;20.27;;;18.50;99.90;;;;;;5034639;28;20180;-77
2022/05/05 08:15:18;;;;;;;29.23;17.58;;;18.60;99.90;;;;;;5017620;28;20192;-92
2022/05/05 08:17:45;;;;;;;30.77;21.05;;;18.70;99.90;;;;;;5033339;28;20182;-76
2022/05/05 08:20:11;;;;;;;33.22;20.45;;;18.40;99.90;;;;;;5021087;28;20169;-82
2022/05/05 08:22:37;;;;;;;29.58;17.63;;;18.10;99.90;;;;;;5015924;28;20242;-79
2022/05/05 08:30:33;;;;;;;27.27;18.90;;;18.30;99.90;;;;;;5015714;28;20362;-81
2022/05/05 08:32:59;;;;;;;30.73;17.25;;;18.50;99.90;;;;;;5014219;28;20267;-77
2022/05/05 08:35:27;;;;;;;27.58;18.50;;;18.60;99.90;;;;;;5014766;28;20200;-80
2022/05/05 08:37:54;;;;;;;32.90;19.55;;;18.70;99.90;;;;;;5017025;28;20176;-80
2022/05/05 08:40:26;;;;;;;31.27;19.25;;;19.00;99.90;;;;;;5015394;28;20603;-77
2022/05/05 08:42:52;;;;;;;28.90;19.00;;;19.20;99.90;;;;;;5014363;28;20242;-83
2022/05/05 08:45:17;;;;;;;28.67;18.75;;;19.50;99.90;;;;;;5014557;28;20180;-75
2022/05/05 08:47:47;;;;;;;30.58;17.55;;;19.50;99.90;;;;;;5015552;28;20176;-81
2022/05/05 08:50:13;;;;;;;33.83;18.73;;;19.50;99.90;;;;;;5015883;28;20175;-88
2022/05/05 08:52:51;;;;;;;36.65;18.75;;;19.30;99.90;;;;;;5019183;28;20596;-77
2022/05/05 08:55:19;;;;;;;27.55;17.98;;;19.50;99.90;;;;;;5013670;28;20195;-82
2022/05/05 08:57:45;;;;;;;30.42;19.65;;;19.60;99.90;;;;;;5013971;28;20176;-81
2022/05/05 09:00:14;;;;;;;34.58;19.05;;;19.40;99.90;;;;;;5013751;28;20172;-79
2022/05/05 09:02:40;;;;;;;31.30;17.45;;;19.70;99.90;;;;;;5014910;28;20200;-87
2022/05/05 09:05:07;;;;;;;26.45;17.73;;;19.60;99.90;;;;;;5014877;28;20204;-77
2022/05/05 09:07:52;;;;;;;24.23;17.75;;;19.80;99.90;;;;;;5014569;28;20177;-83
2022/05/05 09:10:22;;;;;;;25.77;16.15;;;19.70;99.90;;;;;;5014541;28;20208;-83
2022/05/05 09:12:58;;;;;;;25.92;16.85;;;19.10;99.90;;;;;;5014205;28;20172;-80
2022/05/05 09:15:33;;;;;;;23.95;16.83;;;19.10;99.90;;;;;;5013996;28;20188;-86
2022/05/05 09:18:19;;;;;;;20.45;15.73;;;19.30;99.90;;;;;;5014359;28;20178;-77
2022/05/05 09:20:46;;;;;;;23.85;15.32;;;20.20;99.90;;;;;;5014028;28;20192;-78
2022/05/05 09:23:37;;;;;;;32.85;16.35;;;21.00;99.90;;;;;;5013931;28;20195;-78
2022/05/05 09:26:04;;;;;;;23.73;17.30;;;21.30;99.90;;;;;;5014083;28;20192;-78
2022/05/05 09:28:32;;;;;;;25.85;16.75;;;21.40;99.90;;;;;;5013887;28;20165;-76
2022/05/05 09:31:06;;;;;;;24.20;17.73;;;21.40;99.90;;;;;;5015152;28;20224;-88
2022/05/05 09:33:38;;;;;;;26.98;18.77;;;21.60;99.90;;;;;;5028443;28;20211;-80
2022/05/05 09:36:25;;;;;;;29.85;16.33;;;21.10;99.90;;;;;;5014186;28;20196;-92
2022/05/05 09:38:59;;;;;;;26.95;16.60;;;21.10;99.90;;;;;;5029670;28;20180;-81
2022/05/05 09:41:33;;;;;;;18.17;13.43;;;20.70;99.90;;;;;;5014447;28;20168;-83
2022/05/05 09:44:18;;;;;;;24.20;13.45;;;20.40;99.90;;;;;;5027814;28;20203;-78
2022/05/05 09:46:43;;;;;;;23.70;15.68;;;20.20;99.90;;;;;;5033534;28;20214;-81
2022/05/05 09:49:14;;;;;;;23.55;14.80;;;19.70;99.90;;;;;;5031143;28;20191;-84
2022/05/05 09:57:43;;;;;;;17.00;13.18;;;19.60;99.90;;;;;;5033664;28;20202;-80
2022/05/05 10:05:51;;;;;;;28.48;14.13;;;19.70;99.90;;;;;;5033229;28;20210;-82
2022/05/05 10:08:23;;;;;;;29.30;13.23;;;20.00;99.90;;;;;;5023200;28;20208;-80
2022/05/05 10:10:49;;;;;;;14.00;11.82;;;19.70;99.90;;;;;;5014472;28;20200;-79
2022/05/05 10:13:20;;;;;;;14.15;11.40;;;19.70;99.90;;;;;;5013350;28;20636;-81
2022/05/05 10:15:48;;;;;;;14.20;11.10;;;19.70;99.90;;;;;;5012937;28;20234;-81
2022/05/05 10:18:16;;;;;;;13.88;11.65;;;19.70;99.90;;;;;;5013752;28;20165;-84
2022/05/05 10:20:42;;;;;;;17.55;11.65;;;19.80;99.90;;;;;;5012914;28;20172;-78
2022/05/05 10:23:43;;;;;;;13.70;11.25;;;19.80;99.90;;;;;;5020707;28;20172;-77
2022/05/05 10:26:10;;;;;;;10.85;9.57;;;19.30;99.90;;;;;;5033576;28;20258;-88
2022/05/05 10:28:44;;;;;;;12.95;10.13;;;19.60;99.90;;;;;;5014168;28;20711;-81
2022/05/05 10:31:34;;;;;;;17.52;11.05;;;20.10;99.90;;;;;;5013827;28;20212;-84
2022/05/05 10:34:00;;;;;;;15.10;10.27;;;20.30;99.90;;;;;;5013311;28;20183;-78
2022/05/05 10:36:29;;;;;;;12.18;10.98;;;20.70;99.90;;;;;;5013983;28;20215;-85
2022/05/05 10:38:57;;;;;;;14.77;10.23;;;20.90;99.90;;;;;;5015425;28;20165;-80
2022/05/05 10:41:39;;;;;;;13.05;10.20;;;20.30;99.90;;;;;;5016051;28;20168;-82
2022/05/05 10:44:20;;;;;;;12.60;9.95;;;20.40;99.90;;;;;;5017789;28;20207;-77
2022/05/05 10:47:02;;;;;;;12.77;9.82;;;20.80;99.90;;;;;;5019479;28;20708;-79
2022/05/05 10:49:33;;;;;;;16.25;10.10;;;21.00;99.90;;;;;;5016739;28;20164;-83
2022/05/05 10:52:10;;;;;;;12.45;10.32;;;21.40;99.90;;;;;;5014161;28;20727;-88
2022/05/05 10:54:57;;;;;;;15.98;11.88;;;21.00;99.90;;;;;;5014005;28;20172;-84
2022/05/05 10:57:25;;;;;;;16.42;12.35;;;21.00;99.90;;;;;;5013759;28;20172;-80
2022/05/05 11:00:19;;;;;;;17.45;11.77;;;21.20;99.90;;;;;;5013692;28;20176;-83
2022/05/05 11:03:00;;;;;;;15.63;10.45;;;21.10;99.90;;;;;;5013482;28;20184;-85
2022/05/05 11:05:38;;;;;;;19.98;10.73;;;20.80;99.90;;;;;;5013427;28;20202;-82
2022/05/05 11:08:14;;;;;;;11.10;9.93;;;20.70;99.90;;;;;;5028643;28;20212;-86
2022/05/05 11:13:40;;;;;;;17.08;11.63;;;20.10;99.90;;;;;;5013543;28;20179;-83
2022/05/05 11:22:06;;;;;;;45.03;14.00;;;20.00;99.90;;;;;;5012888;28;20184;-88
2022/05/05 11:24:32;;;;;;;19.92;11.93;;;20.10;99.90;;;;;;5013559;28;20621;-90
2022/05/05 11:26:57;;;;;;;19.83;11.95;;;20.10;99.90;;;;;;5013080;28;20196;-85
2022/05/05 11:29:31;;;;;;;12.73;11.10;;;19.90;99.90;;;;;;5028536;28;20222;-80
2022/05/05 11:32:02;;;;;;;12.32;10.93;;;19.70;99.90;;;;;;5013438;28;20296;-83
2022/05/05 11:34:47;;;;;;;14.52;10.70;;;19.70;99.90;;;;;;5013305;28;20712;-88
2022/05/05 11:37:14;;;;;;;14.52;10.40;;;19.80;99.90;;;;;;5012839;28;20522;-78
2022/05/05 11:39:40;;;;;;;15.43;10.68;;;19.90;99.90;;;;;;5014207;28;20187;-83
2022/05/05 11:42:11;;;;;;;14.70;10.75;;;19.80;99.90;;;;;;5016564;28;20230;-77
2022/05/05 11:44:40;;;;;;;12.73;10.40;;;19.70;99.90;;;;;;5016884;28;20176;-86
2022/05/05 11:47:14;;;;;;;12.23;10.65;;;19.70;99.90;;;;;;5016668;28;20219;-79
2022/05/05 11:49:43;;;;;;;43.25;16.00;;;19.80;99.90;;;;;;5016578;28;20177;-82
2022/05/05 11:52:14;;;;;;;17.60;10.85;;;20.00;99.90;;;;;;5017304;28;20668;-83
2022/05/05 11:54:39;;;;;;;31.52;13.43;;;20.00;99.90;;;;;;5031480;28;20176;-83
2022/05/05 11:57:05;;;;;;;11.82;10.38;;;20.10;99.90;;;;;;5016201;28;20169;-79
2022/05/05 12:02:21;;;;;;;13.77;10.20;;;20.30;99.90;;;;;;5016160;28;20199;-80
2022/05/05 12:04:58;;;;;;;10.90;9.63;;;20.30;99.90;;;;;;5016013;28;20207;-81
2022/05/05 12:07:25;;;;;;;13.10;8.88;;;20.10;99.90;;;;;;5015839;28;20171;-86
2022/05/05 12:09:53;;;;;;;12.38;8.90;;;20.00;99.90;;;;;;5015742;28;20672;-82
2022/05/05 12:12:23;;;;;;;16.58;9.15;;;20.00;99.90;;;;;;5015622;28;20234;-82
2022/05/05 12:14:55;;;;;;;136.30;12.68;;;20.10;99.90;;;;;;5015520;28;20211;-83
2022/05/05 12:17:23;;;;;;;27.00;9.07;;;20.20;99.90;;;;;;5015290;28;20522;-86
2022/05/05 12:19:57;;;;;;;11.27;8.45;;;20.40;99.90;;;;;;5015448;28;20620;-82
2022/05/05 12:22:37;;;;;;;8.55;7.68;;;20.60;99.90;;;;;;5030486;28;20604;-80
2022/05/05 12:25:14;;;;;;;10.75;7.80;;;21.00;99.90;;;;;;5015082;28;20220;-82
2022/05/05 12:27:53;;;;;;;9.98;8.93;;;21.60;99.90;;;;;;5015374;28;20632;-79
2022/05/05 12:30:37;;;;;;;9.32;8.35;;;21.50;99.90;;;;;;5015728;28;20192;-83
2022/05/05 12:33:04;;;;;;;12.52;9.65;;;21.30;99.90;;;;;;5030362;28;20181;-82
2022/05/05 12:35:33;;;;;;;8.90;8.10;;;21.40;99.90;;;;;;5015103;28;20309;-79
2022/05/05 12:38:00;;;;;;;9.60;8.65;;;21.60;99.90;;;;;;5015198;28;20180;-83
2022/05/05 12:40:27;;;;;;;16.05;9.82;;;21.60;99.90;;;;;;5015227;28;20169;-82
2022/05/05 12:42:59;;;;;;;12.80;10.75;;;21.70;99.90;;;;;;5014138;28;20173;-85
2022/05/05 12:45:26;;;;;;;15.32;10.15;;;22.00;99.90;;;;;;5014889;28;20195;-79
2022/05/05 12:47:52;;;;;;;13.73;10.18;;;22.10;99.90;;;;;;5015366;28;20248;-85
2022/05/05 12:50:47;;;;;;;10.20;9.35;;;22.50;99.90;;;;;;5014983;28;20177;-82
2022/05/05 13:01:37;;;;;;;8.38;6.97;;;22.70;99.90;;;;;;5015246;28;20272;-81
2022/05/05 13:04:06;;;;;;;6.53;5.85;;;22.20;99.90;;;;;;5017661;28;20169;-81
2022/05/05 13:06:33;;;;;;;7.28;5.97;;;22.00;99.90;;;;;;5017026;28;20224;-85
2022/05/05 13:08:59;;;;;;;8.30;7.50;;;21.60;99.90;;;;;;5015417;28;20209;-79
2022/05/05 13:11:25;;;;;;;7.68;6.32;;;21.40;99.90;;;;;;5015335;28;20247;-80
2022/05/05 13:13:52;;;;;;;9.38;8.18;;;21.40;99.90;;;;;;5014624;28;20247;-84
2022/05/05 13:16:18;;;;;;;11.05;8.18;;;21.40;99.90;;;;;;4997147;28;20204;-85
2022/05/05 13:18:44;;;;;;;10.88;9.30;;;21.70;99.90;;;;;;5014672;28;20164;-81
2022/05/05 13:21:10;;;;;;;10.50;8.05;;;21.80;99.90;;;;;;5014488;28;20203;-83
2022/05/05 13:23:37;;;;;;;10.73;8.75;;;21.60;99.90;;;;;;5014569;28;20193;-81
2022/05/05 13:26:04;;;;;;;10.30;8.68;;;21.80;99.90;;;;;;5014423;28;20234;-79
2022/05/05 13:28:31;;;;;;;10.48;8.57;;;21.90;99.90;;;;;;5014051;28;20207;-82
2022/05/05 13:30:57;;;;;;;13.65;7.53;;;21.40;99.90;;;;;;5014118;28;20283;-86
2022/05/05 13:33:23;;;;;;;7.43;5.85;;;21.40;99.90;;;;;;5014239;28;20167;-80
2022/05/05 13:35:50;;;;;;;6.75;6.15;;;21.50;99.90;;;;;;5014048;28;20188;-84
2022/05/05 13:38:15;;;;;;;8.63;7.80;;;21.30;99.90;;;;;;5014016;28;20164;-83